sensor_id;sensor_type;location;lat;lon;timestamp;P1;durP1;ratioP1;P2;durP2;ratioP2
10007;SDS011;5043;41.766;26.204;2023-06-10T00:01:47;6.18;;;3.97;;
10007;SDS011;5043;41.766;26.204;2023-06-10T00:04:16;5.07;;;3.83;;
10007;SDS011;5043;41.766;26.204;2023-06-10T00:06:44;4.20;;;3.80;;
10007;SDS011;5043;41.766;26.204;2023-06-10T00:09:13;5.90;;;3.67;;
10007;SDS011;5043;41.766;26.204;2023-06-10T00:11:39;6.03;;;3.53;;
10007;SDS011;5043;41.766;26.204;2023-06-10T00:14:05;10.63;;;4.00;;
10007;SDS011;5043;41.766;26.204;2023-06-10T00:16:31;4.15;;;3.50;;
10007;SDS011;5043;41.766;26.204;2023-06-10T00:18:57;4.38;;;3.42;;
10007;SDS011;5043;41.766;26.204;2023-06-10T00:21:29;4.00;;;3.60;;
10007;SDS011;5043;41.766;26.204;2023-06-10T00:23:55;6.75;;;3.80;;
10007;SDS011;5043;41.766;26.204;2023-06-10T00:26:24;7.35;;;3.70;;
10007;SDS011;5043;41.766;26.204;2023-06-10T00:28:51;3.60;;;3.30;;
10007;SDS011;5043;41.766;26.204;2023-06-10T00:31:17;9.38;;;4.03;;
10007;SDS011;5043;41.766;26.204;2023-06-10T00:33:43;4.57;;;3.58;;
10007;SDS011;5043;41.766;26.204;2023-06-10T00:36:08;8.75;;;3.80;;
10007;SDS011;5043;41.766;26.204;2023-06-10T00:38:33;4.70;;;3.83;;
10007;SDS011;5043;41.766;26.204;2023-06-10T00:40:59;5.53;;;3.70;;
10007;SDS011;5043;41.766;26.204;2023-06-10T00:43:25;5.68;;;3.75;;
10007;SDS011;5043;41.766;26.204;2023-06-10T00:45:50;7.90;;;3.78;;
10007;SDS011;5043;41.766;26.204;2023-06-10T00:48:16;7.72;;;4.05;;
10007;SDS011;5043;41.766;26.204;2023-06-10T00:50:43;4.28;;;3.80;;
10007;SDS011;5043;41.766;26.204;2023-06-10T00:53:09;5.68;;;4.00;;
10007;SDS011;5043;41.766;26.204;2023-06-10T00:55:35;9.20;;;4.53;;
10007;SDS011;5043;41.766;26.204;2023-06-10T00:58:01;4.53;;;3.80;;
10007;SDS011;5043;41.766;26.204;2023-06-10T01:00:27;8.00;;;4.30;;
10007;SDS011;5043;41.766;26.204;2023-06-10T01:02:53;5.35;;;3.13;;
10007;SDS011;5043;41.766;26.204;2023-06-10T01:05:18;4.55;;;3.80;;
10007;SDS011;5043;41.766;26.204;2023-06-10T01:07:50;4.65;;;3.35;;
10007;SDS011;5043;41.766;26.204;2023-06-10T01:13:05;3.78;;;2.72;;
10007;SDS011;5043;41.766;26.204;2023-06-10T01:15:33;6.18;;;2.80;;
10007;SDS011;5043;41.766;26.204;2023-06-10T01:18:00;6.05;;;3.90;;
10007;SDS011;5043;41.766;26.204;2023-06-10T01:20:28;4.43;;;3.45;;
10007;SDS011;5043;41.766;26.204;2023-06-10T01:22:55;4.60;;;3.20;;
10007;SDS011;5043;41.766;26.204;2023-06-10T01:25:23;3.05;;;2.75;;
10007;SDS011;5043;41.766;26.204;2023-06-10T01:27:52;5.65;;;3.30;;
10007;SDS011;5043;41.766;26.204;2023-06-10T01:30:22;6.90;;;3.20;;
10007;SDS011;5043;41.766;26.204;2023-06-10T01:32:54;5.95;;;3.97;;
10007;SDS011;5043;41.766;26.204;2023-06-10T01:35:24;4.03;;;3.42;;
10007;SDS011;5043;41.766;26.204;2023-06-10T01:37:52;7.57;;;3.75;;
10007;SDS011;5043;41.766;26.204;2023-06-10T01:40:19;5.13;;;3.45;;
10007;SDS011;5043;41.766;26.204;2023-06-10T01:42:45;4.65;;;3.60;;
10007;SDS011;5043;41.766;26.204;2023-06-10T01:45:11;4.93;;;3.17;;
10007;SDS011;5043;41.766;26.204;2023-06-10T01:47:37;3.78;;;3.08;;
10007;SDS011;5043;41.766;26.204;2023-06-10T01:50:02;7.45;;;3.40;;
10007;SDS011;5043;41.766;26.204;2023-06-10T01:52:28;6.82;;;3.15;;
10007;SDS011;5043;41.766;26.204;2023-06-10T01:54:53;5.45;;;3.15;;
10007;SDS011;5043;41.766;26.204;2023-06-10T01:57:18;6.47;;;3.50;;
10007;SDS011;5043;41.766;26.204;2023-06-10T01:59:44;5.72;;;3.67;;
10007;SDS011;5043;41.766;26.204;2023-06-10T02:02:11;10.02;;;4.35;;
10007;SDS011;5043;41.766;26.204;2023-06-10T02:04:36;6.35;;;3.95;;
10007;SDS011;5043;41.766;26.204;2023-06-10T02:07:02;6.47;;;3.75;;
10007;SDS011;5043;41.766;26.204;2023-06-10T02:09:29;6.13;;;4.13;;
10007;SDS011;5043;41.766;26.204;2023-06-10T02:11:55;8.13;;;3.65;;
10007;SDS011;5043;41.766;26.204;2023-06-10T02:14:20;5.20;;;3.65;;
10007;SDS011;5043;41.766;26.204;2023-06-10T02:16:46;6.68;;;4.22;;
10007;SDS011;5043;41.766;26.204;2023-06-10T02:19:13;8.02;;;4.03;;
10007;SDS011;5043;41.766;26.204;2023-06-10T02:21:38;9.55;;;4.15;;
10007;SDS011;5043;41.766;26.204;2023-06-10T02:24:04;6.63;;;4.28;;
10007;SDS011;5043;41.766;26.204;2023-06-10T02:26:30;9.05;;;3.70;;
10007;SDS011;5043;41.766;26.204;2023-06-10T02:28:55;7.30;;;3.88;;
10007;SDS011;5043;41.766;26.204;2023-06-10T02:31:21;7.18;;;4.07;;
10007;SDS011;5043;41.766;26.204;2023-06-10T02:33:46;9.07;;;3.85;;
10007;SDS011;5043;41.766;26.204;2023-06-10T02:36:12;3.92;;;3.60;;
10007;SDS011;5043;41.766;26.204;2023-06-10T02:38:40;6.13;;;3.80;;
10007;SDS011;5043;41.766;26.204;2023-06-10T02:41:06;11.80;;;4.80;;
10007;SDS011;5043;41.766;26.204;2023-06-10T02:43:31;7.88;;;4.00;;
10007;SDS011;5043;41.766;26.204;2023-06-10T02:45:57;11.70;;;4.40;;
10007;SDS011;5043;41.766;26.204;2023-06-10T02:48:25;6.90;;;4.15;;
10007;SDS011;5043;41.766;26.204;2023-06-10T02:50:52;9.27;;;4.07;;
10007;SDS011;5043;41.766;26.204;2023-06-10T02:53:17;5.78;;;4.20;;
10007;SDS011;5043;41.766;26.204;2023-06-10T02:55:42;9.88;;;4.18;;
10007;SDS011;5043;41.766;26.204;2023-06-10T02:58:09;9.88;;;4.30;;
10007;SDS011;5043;41.766;26.204;2023-06-10T03:00:34;9.65;;;3.95;;
10007;SDS011;5043;41.766;26.204;2023-06-10T03:03:00;7.13;;;3.97;;
10007;SDS011;5043;41.766;26.204;2023-06-10T03:05:28;6.57;;;3.83;;
10007;SDS011;5043;41.766;26.204;2023-06-10T03:07:55;9.50;;;4.25;;
10007;SDS011;5043;41.766;26.204;2023-06-10T03:10:20;5.95;;;3.70;;
10007;SDS011;5043;41.766;26.204;2023-06-10T03:12:46;5.43;;;4.40;;
10007;SDS011;5043;41.766;26.204;2023-06-10T03:15:12;5.47;;;4.07;;
10007;SDS011;5043;41.766;26.204;2023-06-10T03:17:38;5.78;;;3.92;;
10007;SDS011;5043;41.766;26.204;2023-06-10T03:20:03;9.13;;;5.00;;
10007;SDS011;5043;41.766;26.204;2023-06-10T03:22:35;10.45;;;4.32;;
10007;SDS011;5043;41.766;26.204;2023-06-10T03:25:00;7.00;;;4.47;;
10007;SDS011;5043;41.766;26.204;2023-06-10T03:27:26;5.90;;;4.43;;
10007;SDS011;5043;41.766;26.204;2023-06-10T03:29:51;8.98;;;4.57;;
10007;SDS011;5043;41.766;26.204;2023-06-10T03:32:17;8.75;;;4.10;;
10007;SDS011;5043;41.766;26.204;2023-06-10T03:34:43;15.45;;;5.28;;
10007;SDS011;5043;41.766;26.204;2023-06-10T03:37:10;9.30;;;4.53;;
10007;SDS011;5043;41.766;26.204;2023-06-10T03:39:35;7.45;;;4.47;;
10007;SDS011;5043;41.766;26.204;2023-06-10T03:42:01;9.45;;;4.93;;
10007;SDS011;5043;41.766;26.204;2023-06-10T03:44:26;7.70;;;4.35;;
10007;SDS011;5043;41.766;26.204;2023-06-10T03:46:52;10.20;;;3.70;;
10007;SDS011;5043;41.766;26.204;2023-06-10T03:49:19;13.55;;;4.25;;
10007;SDS011;5043;41.766;26.204;2023-06-10T03:51:44;15.77;;;4.55;;
10007;SDS011;5043;41.766;26.204;2023-06-10T03:54:10;14.13;;;4.82;;
10007;SDS011;5043;41.766;26.204;2023-06-10T03:56:35;6.78;;;4.38;;
10007;SDS011;5043;41.766;26.204;2023-06-10T03:59:01;11.32;;;5.13;;
10007;SDS011;5043;41.766;26.204;2023-06-10T04:01:26;7.38;;;4.72;;
10007;SDS011;5043;41.766;26.204;2023-06-10T04:03:52;7.68;;;4.65;;
10007;SDS011;5043;41.766;26.204;2023-06-10T04:06:19;7.57;;;4.60;;
10007;SDS011;5043;41.766;26.204;2023-06-10T04:08:45;7.80;;;5.00;;
10007;SDS011;5043;41.766;26.204;2023-06-10T04:11:10;12.40;;;4.95;;
10007;SDS011;5043;41.766;26.204;2023-06-10T04:13:35;9.90;;;4.63;;
10007;SDS011;5043;41.766;26.204;2023-06-10T04:16:01;9.15;;;4.90;;
10007;SDS011;5043;41.766;26.204;2023-06-10T04:18:27;8.38;;;5.03;;
10007;SDS011;5043;41.766;26.204;2023-06-10T04:20:53;6.68;;;4.43;;
10007;SDS011;5043;41.766;26.204;2023-06-10T04:23:19;6.50;;;4.43;;
10007;SDS011;5043;41.766;26.204;2023-06-10T04:25:44;9.65;;;4.72;;
10007;SDS011;5043;41.766;26.204;2023-06-10T04:28:09;9.25;;;4.63;;
10007;SDS011;5043;41.766;26.204;2023-06-10T04:30:35;10.15;;;4.72;;
10007;SDS011;5043;41.766;26.204;2023-06-10T04:33:00;14.65;;;5.32;;
10007;SDS011;5043;41.766;26.204;2023-06-10T04:35:26;7.05;;;4.57;;
10007;SDS011;5043;41.766;26.204;2023-06-10T04:37:54;14.98;;;5.50;;
10007;SDS011;5043;41.766;26.204;2023-06-10T04:40:19;10.80;;;5.10;;
10007;SDS011;5043;41.766;26.204;2023-06-10T04:42:45;6.07;;;4.95;;
10007;SDS011;5043;41.766;26.204;2023-06-10T04:45:10;9.70;;;4.75;;
10007;SDS011;5043;41.766;26.204;2023-06-10T04:47:36;9.77;;;4.78;;
10007;SDS011;5043;41.766;26.204;2023-06-10T04:50:02;9.27;;;5.45;;
10007;SDS011;5043;41.766;26.204;2023-06-10T04:52:28;6.65;;;4.60;;
10007;SDS011;5043;41.766;26.204;2023-06-10T04:54:54;8.05;;;4.70;;
10007;SDS011;5043;41.766;26.204;2023-06-10T04:57:20;11.07;;;4.80;;
10007;SDS011;5043;41.766;26.204;2023-06-10T04:59:46;9.27;;;5.40;;
10007;SDS011;5043;41.766;26.204;2023-06-10T05:02:12;11.10;;;4.80;;
10007;SDS011;5043;41.766;26.204;2023-06-10T05:04:38;7.05;;;4.70;;
10007;SDS011;5043;41.766;26.204;2023-06-10T05:07:04;9.50;;;4.53;;
10007;SDS011;5043;41.766;26.204;2023-06-10T05:09:30;5.78;;;4.30;;
10007;SDS011;5043;41.766;26.204;2023-06-10T05:11:55;4.88;;;4.38;;
10007;SDS011;5043;41.766;26.204;2023-06-10T05:14:21;6.93;;;4.53;;
10007;SDS011;5043;41.766;26.204;2023-06-10T05:16:47;7.72;;;5.43;;
10007;SDS011;5043;41.766;26.204;2023-06-10T05:19:13;14.60;;;5.75;;
10007;SDS011;5043;41.766;26.204;2023-06-10T05:21:38;8.30;;;5.20;;
10007;SDS011;5043;41.766;26.204;2023-06-10T05:24:04;6.82;;;5.13;;
10007;SDS011;5043;41.766;26.204;2023-06-10T05:26:29;9.68;;;4.93;;
10007;SDS011;5043;41.766;26.204;2023-06-10T05:28:56;7.45;;;5.57;;
10007;SDS011;5043;41.766;26.204;2023-06-10T05:31:22;8.07;;;5.32;;
10007;SDS011;5043;41.766;26.204;2023-06-10T05:33:47;9.73;;;5.72;;
10007;SDS011;5043;41.766;26.204;2023-06-10T05:36:13;8.93;;;5.55;;
10007;SDS011;5043;41.766;26.204;2023-06-10T05:38:38;10.63;;;6.00;;
10007;SDS011;5043;41.766;26.204;2023-06-10T05:41:04;8.75;;;5.80;;
10007;SDS011;5043;41.766;26.204;2023-06-10T05:43:29;9.25;;;5.35;;
10007;SDS011;5043;41.766;26.204;2023-06-10T05:45:55;13.25;;;6.13;;
10007;SDS011;5043;41.766;26.204;2023-06-10T05:48:21;7.10;;;5.20;;
10007;SDS011;5043;41.766;26.204;2023-06-10T05:50:46;8.80;;;5.60;;
10007;SDS011;5043;41.766;26.204;2023-06-10T05:53:14;7.40;;;5.50;;
10007;SDS011;5043;41.766;26.204;2023-06-10T05:55:46;6.28;;;5.15;;
10007;SDS011;5043;41.766;26.204;2023-06-10T05:58:12;12.57;;;5.45;;
10007;SDS011;5043;41.766;26.204;2023-06-10T06:00:39;8.13;;;4.18;;
10007;SDS011;5043;41.766;26.204;2023-06-10T06:03:08;5.00;;;3.97;;
10007;SDS011;5043;41.766;26.204;2023-06-10T06:05:34;7.28;;;4.57;;
10007;SDS011;5043;41.766;26.204;2023-06-10T06:08:02;5.55;;;3.75;;
10007;SDS011;5043;41.766;26.204;2023-06-10T06:10:31;4.63;;;4.22;;
10007;SDS011;5043;41.766;26.204;2023-06-10T06:12:57;10.35;;;4.45;;
10007;SDS011;5043;41.766;26.204;2023-06-10T06:15:23;6.13;;;3.90;;
10007;SDS011;5043;41.766;26.204;2023-06-10T06:17:48;9.50;;;4.35;;
10007;SDS011;5043;41.766;26.204;2023-06-10T06:20:13;4.50;;;4.10;;
10007;SDS011;5043;41.766;26.204;2023-06-10T06:22:39;12.27;;;4.20;;
10007;SDS011;5043;41.766;26.204;2023-06-10T06:25:05;4.95;;;4.25;;
10007;SDS011;5043;41.766;26.204;2023-06-10T06:27:31;4.85;;;4.35;;
10007;SDS011;5043;41.766;26.204;2023-06-10T06:29:56;5.53;;;3.97;;
10007;SDS011;5043;41.766;26.204;2023-06-10T06:32:24;7.15;;;4.68;;
10007;SDS011;5043;41.766;26.204;2023-06-10T06:34:52;5.40;;;3.90;;
10007;SDS011;5043;41.766;26.204;2023-06-10T06:37:19;3.97;;;3.60;;
10007;SDS011;5043;41.766;26.204;2023-06-10T06:39:46;10.05;;;3.28;;
10007;SDS011;5043;41.766;26.204;2023-06-10T06:42:12;4.65;;;3.90;;
10007;SDS011;5043;41.766;26.204;2023-06-10T06:44:37;6.00;;;4.35;;
10007;SDS011;5043;41.766;26.204;2023-06-10T06:47:03;10.27;;;4.28;;
10007;SDS011;5043;41.766;26.204;2023-06-10T06:49:28;5.97;;;3.80;;
10007;SDS011;5043;41.766;26.204;2023-06-10T06:51:54;6.68;;;4.72;;
10007;SDS011;5043;41.766;26.204;2023-06-10T06:54:19;11.15;;;4.30;;
10007;SDS011;5043;41.766;26.204;2023-06-10T06:56:44;8.60;;;4.22;;
10007;SDS011;5043;41.766;26.204;2023-06-10T06:59:10;8.57;;;4.88;;
10007;SDS011;5043;41.766;26.204;2023-06-10T07:01:36;5.03;;;4.22;;
10007;SDS011;5043;41.766;26.204;2023-06-10T07:04:01;5.57;;;4.00;;
10007;SDS011;5043;41.766;26.204;2023-06-10T07:06:28;8.45;;;4.22;;
10007;SDS011;5043;41.766;26.204;2023-06-10T07:08:53;5.07;;;3.53;;
10007;SDS011;5043;41.766;26.204;2023-06-10T07:11:18;5.85;;;4.05;;
10007;SDS011;5043;41.766;26.204;2023-06-10T07:13:44;4.18;;;3.70;;
10007;SDS011;5043;41.766;26.204;2023-06-10T07:16:09;5.80;;;3.97;;
10007;SDS011;5043;41.766;26.204;2023-06-10T07:18:35;6.45;;;4.45;;
10007;SDS011;5043;41.766;26.204;2023-06-10T07:21:00;4.90;;;3.85;;
10007;SDS011;5043;41.766;26.204;2023-06-10T07:23:26;5.40;;;3.72;;
10007;SDS011;5043;41.766;26.204;2023-06-10T07:25:51;23.80;;;5.95;;
10007;SDS011;5043;41.766;26.204;2023-06-10T07:28:17;18.98;;;5.15;;
10007;SDS011;5043;41.766;26.204;2023-06-10T07:30:42;5.00;;;3.83;;
10007;SDS011;5043;41.766;26.204;2023-06-10T07:33:08;5.15;;;3.92;;
10007;SDS011;5043;41.766;26.204;2023-06-10T07:35:35;4.28;;;3.88;;
10007;SDS011;5043;41.766;26.204;2023-06-10T07:38:00;5.60;;;3.67;;
10007;SDS011;5043;41.766;26.204;2023-06-10T07:40:26;7.35;;;4.30;;
10007;SDS011;5043;41.766;26.204;2023-06-10T07:42:52;6.20;;;3.72;;
10007;SDS011;5043;41.766;26.204;2023-06-10T07:45:18;7.85;;;4.45;;
10007;SDS011;5043;41.766;26.204;2023-06-10T07:47:44;7.75;;;3.95;;
10007;SDS011;5043;41.766;26.204;2023-06-10T07:50:10;6.13;;;4.00;;
10007;SDS011;5043;41.766;26.204;2023-06-10T07:55:52;5.03;;;4.15;;
10007;SDS011;5043;41.766;26.204;2023-06-10T07:58:17;7.43;;;4.28;;
10007;SDS011;5043;41.766;26.204;2023-06-10T08:00:43;6.00;;;4.38;;
10007;SDS011;5043;41.766;26.204;2023-06-10T08:03:08;8.63;;;4.55;;
10007;SDS011;5043;41.766;26.204;2023-06-10T08:05:34;5.30;;;3.95;;
10007;SDS011;5043;41.766;26.204;2023-06-10T08:08:00;4.68;;;3.92;;
10007;SDS011;5043;41.766;26.204;2023-06-10T08:10:26;11.25;;;4.20;;
10007;SDS011;5043;41.766;26.204;2023-06-10T08:12:51;9.88;;;4.35;;
10007;SDS011;5043;41.766;26.204;2023-06-10T08:15:17;17.23;;;4.22;;
10007;SDS011;5043;41.766;26.204;2023-06-10T08:17:43;9.65;;;4.05;;
10007;SDS011;5043;41.766;26.204;2023-06-10T08:20:09;5.90;;;3.88;;
10007;SDS011;5043;41.766;26.204;2023-06-10T08:22:35;6.78;;;3.70;;
10007;SDS011;5043;41.766;26.204;2023-06-10T08:25:00;7.00;;;4.50;;
10007;SDS011;5043;41.766;26.204;2023-06-10T08:27:26;14.73;;;5.47;;
10007;SDS011;5043;41.766;26.204;2023-06-10T08:29:51;7.53;;;4.38;;
10007;SDS011;5043;41.766;26.204;2023-06-10T08:32:17;7.43;;;4.20;;
10007;SDS011;5043;41.766;26.204;2023-06-10T08:34:42;7.97;;;4.35;;
10007;SDS011;5043;41.766;26.204;2023-06-10T08:37:07;5.50;;;3.92;;
10007;SDS011;5043;41.766;26.204;2023-06-10T08:39:33;6.18;;;4.60;;
10007;SDS011;5043;41.766;26.204;2023-06-10T08:44:55;5.60;;;3.95;;
10007;SDS011;5043;41.766;26.204;2023-06-10T08:47:22;9.05;;;3.78;;
10007;SDS011;5043;41.766;26.204;2023-06-10T08:49:49;4.97;;;4.00;;
10007;SDS011;5043;41.766;26.204;2023-06-10T08:52:16;4.85;;;3.97;;
10007;SDS011;5043;41.766;26.204;2023-06-10T08:54:48;5.40;;;3.55;;
10007;SDS011;5043;41.766;26.204;2023-06-10T08:57:14;7.18;;;3.58;;
10007;SDS011;5043;41.766;26.204;2023-06-10T08:59:40;7.32;;;4.40;;
10007;SDS011;5043;41.766;26.204;2023-06-10T09:05:00;6.22;;;3.88;;
10007;SDS011;5043;41.766;26.204;2023-06-10T09:07:27;6.78;;;3.63;;
10007;SDS011;5043;41.766;26.204;2023-06-10T09:09:56;6.70;;;3.67;;
10007;SDS011;5043;41.766;26.204;2023-06-10T09:12:22;5.90;;;3.45;;
10007;SDS011;5043;41.766;26.204;2023-06-10T09:14:48;6.43;;;4.15;;
10007;SDS011;5043;41.766;26.204;2023-06-10T09:17:13;6.80;;;3.70;;
10007;SDS011;5043;41.766;26.204;2023-06-10T09:19:39;6.07;;;4.30;;
10007;SDS011;5043;41.766;26.204;2023-06-10T09:22:06;5.60;;;3.38;;
10007;SDS011;5043;41.766;26.204;2023-06-10T09:24:31;7.07;;;4.15;;
10007;SDS011;5043;41.766;26.204;2023-06-10T09:27:04;3.85;;;3.50;;
10007;SDS011;5043;41.766;26.204;2023-06-10T09:32:14;5.97;;;4.07;;
10007;SDS011;5043;41.766;26.204;2023-06-10T09:34:42;7.10;;;3.70;;
10007;SDS011;5043;41.766;26.204;2023-06-10T09:37:09;6.05;;;3.80;;
10007;SDS011;5043;41.766;26.204;2023-06-10T09:39:38;5.25;;;3.63;;
10007;SDS011;5043;41.766;26.204;2023-06-10T09:42:15;7.82;;;3.92;;
10007;SDS011;5043;41.766;26.204;2023-06-10T09:44:42;4.38;;;3.65;;
10007;SDS011;5043;41.766;26.204;2023-06-10T09:47:19;5.03;;;3.63;;
10007;SDS011;5043;41.766;26.204;2023-06-10T09:49:50;4.28;;;3.90;;
10007;SDS011;5043;41.766;26.204;2023-06-10T09:52:22;7.78;;;4.40;;
10007;SDS011;5043;41.766;26.204;2023-06-10T09:54:48;8.18;;;3.63;;
10007;SDS011;5043;41.766;26.204;2023-06-10T09:57:14;4.13;;;3.58;;
10007;SDS011;5043;41.766;26.204;2023-06-10T09:59:42;4.53;;;3.83;;
10007;SDS011;5043;41.766;26.204;2023-06-10T10:02:13;3.50;;;3.20;;
10007;SDS011;5043;41.766;26.204;2023-06-10T10:04:39;4.00;;;3.15;;
10007;SDS011;5043;41.766;26.204;2023-06-10T10:07:04;6.57;;;3.35;;
10007;SDS011;5043;41.766;26.204;2023-06-10T10:09:32;4.10;;;3.35;;
10007;SDS011;5043;41.766;26.204;2023-06-10T10:11:57;6.65;;;3.50;;
10007;SDS011;5043;41.766;26.204;2023-06-10T10:14:25;4.68;;;3.00;;
10007;SDS011;5043;41.766;26.204;2023-06-10T10:16:54;3.65;;;3.35;;
10007;SDS011;5043;41.766;26.204;2023-06-10T10:19:23;6.35;;;3.70;;
10007;SDS011;5043;41.766;26.204;2023-06-10T10:21:53;4.38;;;3.53;;
10007;SDS011;5043;41.766;26.204;2023-06-10T10:24:23;5.13;;;3.13;;
10007;SDS011;5043;41.766;26.204;2023-06-10T10:26:54;3.35;;;2.83;;
10007;SDS011;5043;41.766;26.204;2023-06-10T10:29:33;3.85;;;3.28;;
10007;SDS011;5043;41.766;26.204;2023-06-10T10:32:04;6.22;;;3.42;;
10007;SDS011;5043;41.766;26.204;2023-06-10T10:34:35;4.32;;;3.38;;
10007;SDS011;5043;41.766;26.204;2023-06-10T10:37:08;5.22;;;3.53;;
10007;SDS011;5043;41.766;26.204;2023-06-10T10:39:34;6.85;;;3.40;;
10007;SDS011;5043;41.766;26.204;2023-06-10T10:42:01;3.55;;;2.92;;
10007;SDS011;5043;41.766;26.204;2023-06-10T10:44:29;5.55;;;3.78;;
10007;SDS011;5043;41.766;26.204;2023-06-10T10:46:55;4.53;;;2.88;;
10007;SDS011;5043;41.766;26.204;2023-06-10T10:49:22;4.53;;;3.15;;
10007;SDS011;5043;41.766;26.204;2023-06-10T10:54:28;5.35;;;3.83;;
10007;SDS011;5043;41.766;26.204;2023-06-10T11:02:17;5.55;;;3.53;;
10007;SDS011;5043;41.766;26.204;2023-06-10T11:04:46;5.70;;;3.50;;
10007;SDS011;5043;41.766;26.204;2023-06-10T11:07:13;6.45;;;3.28;;
10007;SDS011;5043;41.766;26.204;2023-06-10T11:12:25;5.75;;;3.60;;
10007;SDS011;5043;41.766;26.204;2023-06-10T11:14:54;5.20;;;3.70;;
10007;SDS011;5043;41.766;26.204;2023-06-10T11:17:21;6.43;;;3.17;;
10007;SDS011;5043;41.766;26.204;2023-06-10T11:19:47;3.25;;;2.95;;
10007;SDS011;5043;41.766;26.204;2023-06-10T11:22:16;3.55;;;3.13;;
10007;SDS011;5043;41.766;26.204;2023-06-10T11:24:47;3.75;;;3.38;;
10007;SDS011;5043;41.766;26.204;2023-06-10T11:27:15;3.22;;;2.92;;
10007;SDS011;5043;41.766;26.204;2023-06-10T11:32:33;6.38;;;3.45;;
10007;SDS011;5043;41.766;26.204;2023-06-10T11:35:00;5.05;;;3.33;;
10007;SDS011;5043;41.766;26.204;2023-06-10T11:37:32;3.50;;;3.20;;
10007;SDS011;5043;41.766;26.204;2023-06-10T11:39:57;8.38;;;3.17;;
10007;SDS011;5043;41.766;26.204;2023-06-10T11:42:24;22.95;;;4.80;;
10007;SDS011;5043;41.766;26.204;2023-06-10T11:44:50;5.43;;;3.53;;
10007;SDS011;5043;41.766;26.204;2023-06-10T11:47:17;6.40;;;3.78;;
10007;SDS011;5043;41.766;26.204;2023-06-10T11:49:44;4.40;;;3.20;;
10007;SDS011;5043;41.766;26.204;2023-06-10T11:52:09;21.33;;;6.95;;
10007;SDS011;5043;41.766;26.204;2023-06-10T11:54:36;6.82;;;3.85;;
10007;SDS011;5043;41.766;26.204;2023-06-10T11:57:03;5.03;;;3.47;;
10007;SDS011;5043;41.766;26.204;2023-06-10T11:59:30;15.18;;;3.80;;
10007;SDS011;5043;41.766;26.204;2023-06-10T12:01:56;4.65;;;3.65;;
10007;SDS011;5043;41.766;26.204;2023-06-10T12:04:22;9.98;;;4.30;;
10007;SDS011;5043;41.766;26.204;2023-06-10T12:06:48;8.30;;;3.58;;
10007;SDS011;5043;41.766;26.204;2023-06-10T12:09:23;6.78;;;3.40;;
10007;SDS011;5043;41.766;26.204;2023-06-10T12:11:49;5.15;;;3.58;;
10007;SDS011;5043;41.766;26.204;2023-06-10T12:22:43;3.42;;;2.90;;
10007;SDS011;5043;41.766;26.204;2023-06-10T12:25:10;3.63;;;3.03;;
10007;SDS011;5043;41.766;26.204;2023-06-10T12:27:36;7.30;;;3.17;;
10007;SDS011;5043;41.766;26.204;2023-06-10T12:30:03;6.10;;;3.95;;
10007;SDS011;5043;41.766;26.204;2023-06-10T12:35:02;8.27;;;3.40;;
10007;SDS011;5043;41.766;26.204;2023-06-10T12:37:32;7.68;;;3.17;;
10007;SDS011;5043;41.766;26.204;2023-06-10T12:40:02;4.78;;;3.13;;
10007;SDS011;5043;41.766;26.204;2023-06-10T12:42:29;4.40;;;3.38;;
10007;SDS011;5043;41.766;26.204;2023-06-10T12:44:56;4.13;;;3.03;;
10007;SDS011;5043;41.766;26.204;2023-06-10T12:50:00;5.07;;;3.28;;
10007;SDS011;5043;41.766;26.204;2023-06-10T12:52:28;7.07;;;3.72;;
10007;SDS011;5043;41.766;26.204;2023-06-10T12:54:54;4.93;;;3.40;;
10007;SDS011;5043;41.766;26.204;2023-06-10T12:57:20;3.40;;;3.13;;
10007;SDS011;5043;41.766;26.204;2023-06-10T12:59:46;5.47;;;3.40;;
10007;SDS011;5043;41.766;26.204;2023-06-10T13:02:17;6.95;;;3.60;;
10007;SDS011;5043;41.766;26.204;2023-06-10T13:04:48;6.38;;;3.67;;
10007;SDS011;5043;41.766;26.204;2023-06-10T13:07:14;15.15;;;6.28;;
10007;SDS011;5043;41.766;26.204;2023-06-10T13:09:40;24.30;;;8.98;;
10007;SDS011;5043;41.766;26.204;2023-06-10T13:12:05;6.28;;;3.75;;
10007;SDS011;5043;41.766;26.204;2023-06-10T13:14:31;3.42;;;2.90;;
10007;SDS011;5043;41.766;26.204;2023-06-10T13:16:57;5.05;;;3.10;;
10007;SDS011;5043;41.766;26.204;2023-06-10T13:19:22;6.55;;;3.40;;
10007;SDS011;5043;41.766;26.204;2023-06-10T13:21:48;3.20;;;2.90;;
10007;SDS011;5043;41.766;26.204;2023-06-10T13:24:13;3.55;;;2.63;;
10007;SDS011;5043;41.766;26.204;2023-06-10T13:26:39;3.75;;;2.78;;
10007;SDS011;5043;41.766;26.204;2023-06-10T13:29:04;5.07;;;3.10;;
10007;SDS011;5043;41.766;26.204;2023-06-10T13:31:30;3.10;;;2.80;;
10007;SDS011;5043;41.766;26.204;2023-06-10T13:33:57;3.05;;;2.85;;
10007;SDS011;5043;41.766;26.204;2023-06-10T13:36:22;3.83;;;3.20;;
10007;SDS011;5043;41.766;26.204;2023-06-10T13:38:47;3.75;;;3.17;;
10007;SDS011;5043;41.766;26.204;2023-06-10T13:41:13;3.00;;;2.80;;
10007;SDS011;5043;41.766;26.204;2023-06-10T13:43:39;4.93;;;2.80;;
10007;SDS011;5043;41.766;26.204;2023-06-10T13:46:04;5.63;;;3.33;;
10007;SDS011;5043;41.766;26.204;2023-06-10T13:48:30;3.80;;;2.67;;
10007;SDS011;5043;41.766;26.204;2023-06-10T13:50:56;4.20;;;2.92;;
10007;SDS011;5043;41.766;26.204;2023-06-10T13:53:21;8.48;;;3.08;;
10007;SDS011;5043;41.766;26.204;2023-06-10T13:55:47;5.00;;;3.15;;
10007;SDS011;5043;41.766;26.204;2023-06-10T13:58:12;4.88;;;3.08;;
10007;SDS011;5043;41.766;26.204;2023-06-10T14:00:38;4.35;;;3.00;;
10007;SDS011;5043;41.766;26.204;2023-06-10T14:03:04;4.88;;;2.60;;
10007;SDS011;5043;41.766;26.204;2023-06-10T14:05:29;5.05;;;3.22;;
10007;SDS011;5043;41.766;26.204;2023-06-10T14:07:54;6.85;;;3.40;;
10007;SDS011;5043;41.766;26.204;2023-06-10T14:10:21;5.03;;;3.53;;
10007;SDS011;5043;41.766;26.204;2023-06-10T14:12:46;5.55;;;3.35;;
10007;SDS011;5043;41.766;26.204;2023-06-10T14:15:12;6.78;;;3.20;;
10007;SDS011;5043;41.766;26.204;2023-06-10T14:17:37;5.40;;;3.50;;
10007;SDS011;5043;41.766;26.204;2023-06-10T14:20:03;4.65;;;3.65;;
10007;SDS011;5043;41.766;26.204;2023-06-10T14:22:29;5.68;;;3.50;;
10007;SDS011;5043;41.766;26.204;2023-06-10T14:24:54;4.88;;;3.40;;
10007;SDS011;5043;41.766;26.204;2023-06-10T14:27:20;5.30;;;3.75;;
10007;SDS011;5043;41.766;26.204;2023-06-10T14:29:45;6.25;;;3.08;;
10007;SDS011;5043;41.766;26.204;2023-06-10T14:32:11;5.97;;;3.47;;
10007;SDS011;5043;41.766;26.204;2023-06-10T14:34:41;3.80;;;3.25;;
10007;SDS011;5043;41.766;26.204;2023-06-10T14:37:28;5.53;;;2.80;;
10007;SDS011;5043;41.766;26.204;2023-06-10T14:39:57;7.18;;;3.03;;
10007;SDS011;5043;41.766;26.204;2023-06-10T14:42:30;4.45;;;3.97;;
10007;SDS011;5043;41.766;26.204;2023-06-10T14:47:48;3.88;;;3.47;;
10007;SDS011;5043;41.766;26.204;2023-06-10T14:50:25;4.65;;;3.15;;
10007;SDS011;5043;41.766;26.204;2023-06-10T14:52:51;4.00;;;3.35;;
10007;SDS011;5043;41.766;26.204;2023-06-10T14:55:16;5.78;;;3.15;;
10007;SDS011;5043;41.766;26.204;2023-06-10T14:57:42;5.57;;;3.70;;
10007;SDS011;5043;41.766;26.204;2023-06-10T15:00:08;6.25;;;3.58;;
10007;SDS011;5043;41.766;26.204;2023-06-10T15:02:41;5.32;;;3.60;;
10007;SDS011;5043;41.766;26.204;2023-06-10T15:05:09;5.47;;;3.90;;
10007;SDS011;5043;41.766;26.204;2023-06-10T15:07:37;4.38;;;3.45;;
10007;SDS011;5043;41.766;26.204;2023-06-10T15:10:04;5.30;;;3.50;;
10007;SDS011;5043;41.766;26.204;2023-06-10T15:12:33;8.30;;;3.47;;
10007;SDS011;5043;41.766;26.204;2023-06-10T15:14:59;8.25;;;3.58;;
10007;SDS011;5043;41.766;26.204;2023-06-10T15:17:26;4.43;;;3.42;;
10007;SDS011;5043;41.766;26.204;2023-06-10T15:19:51;8.43;;;3.20;;
10007;SDS011;5043;41.766;26.204;2023-06-10T15:22:17;12.60;;;3.70;;
10007;SDS011;5043;41.766;26.204;2023-06-10T15:24:42;5.70;;;3.78;;
10007;SDS011;5043;41.766;26.204;2023-06-10T15:27:09;3.63;;;3.33;;